Time;durP1;ratioP1;P1;durP2;ratioP2;P2;SDS_P1;SDS_P2;PMS_P1;PMS_P2;Temp;Humidity;BMP_temperature;BMP_pressure;BME280_temperature;BME280_humidity;BME280_pressure;Samples;Min_cycle;Max_cycle;Signal;HPM_P1;HPM_P2
2023/02/14 00:01:53;;;;;;;231.00;14.73;;;;;;;;;;5062108;28;20911;-58
2023/02/14 00:04:18;;;;;;;139.00;11.27;;;;;;;;;;5065220;28;20050;-58
2023/02/14 00:06:44;;;;;;;164.82;14.25;;;;;;;;;;5065543;28;20067;-58
2023/02/14 00:09:18;;;;;;;189.90;13.38;;;;;;;;;;5066019;28;20395;-57
2023/02/14 00:11:44;;;;;;;213.65;16.63;;;;;;;;;;5063458;28;20135;-58
2023/02/14 00:16:53;;;;;;;166.45;12.43;;;;;;;;;;5065690;28;20624;-58
2023/02/14 00:19:19;;;;;;;183.05;10.82;;;;;;;;;;5064841;28;20032;-58
2023/02/14 00:21:45;;;;;;;214.32;16.55;;;;;;;;;;5064899;28;20032;-58
2023/02/14 00:24:12;;;;;;;180.55;13.05;;;;;;;;;;5065076;28;20479;-58
2023/02/14 00:26:37;;;;;;;132.05;13.85;;;;;;;;;;5062883;28;20028;-58
2023/02/14 00:29:03;;;;;;;135.60;11.15;;;;;;;;;;5064863;28;20031;-59
2023/02/14 00:31:28;;;;;;;208.60;15.60;;;;;;;;;;5064017;28;20028;-59
2023/02/14 00:33:53;;;;;;;183.02;16.30;;;;;;;;;;5064334;28;20502;-58
2023/02/14 00:36:19;;;;;;;166.80;14.98;;;;;;;;;;5063113;28;21045;-59
2023/02/14 00:38:44;;;;;;;202.15;15.30;;;;;;;;;;5065481;28;21005;-58
2023/02/14 00:41:17;;;;;;;166.65;15.00;;;;;;;;;;5064677;28;20033;-59
2023/02/14 00:43:43;;;;;;;191.55;16.38;;;;;;;;;;5065695;28;20102;-59
2023/02/14 00:46:08;;;;;;;143.48;15.25;;;;;;;;;;5066736;28;20135;-57
2023/02/14 00:48:33;;;;;;;127.97;13.80;;;;;;;;;;5067507;28;20414;-58
2023/02/14 00:50:58;;;;;;;164.30;12.32;;;;;;;;;;5067345;28;20783;-58
2023/02/14 00:53:24;;;;;;;173.15;15.15;;;;;;;;;;5067971;28;20031;-58
2023/02/14 00:55:49;;;;;;;148.60;13.97;;;;;;;;;;5067652;28;20840;-57
2023/02/14 00:58:14;;;;;;;154.55;15.25;;;;;;;;;;5067774;28;20686;-58
2023/02/14 01:00:39;;;;;;;191.90;15.77;;;;;;;;;;5067766;28;20135;-58
2023/02/14 01:03:04;;;;;;;186.50;14.23;;;;;;;;;;5070076;28;20282;-60
2023/02/14 01:05:30;;;;;;;119.68;8.40;;;;;;;;;;5068968;28;20024;-59
2023/02/14 01:07:55;;;;;;;169.57;14.18;;;;;;;;;;5069863;28;20028;-58
2023/02/14 01:10:20;;;;;;;180.27;16.17;;;;;;;;;;5067242;28;20028;-58
2023/02/14 01:12:45;;;;;;;152.35;14.73;;;;;;;;;;5067603;28;20319;-59
2023/02/14 01:15:10;;;;;;;197.98;16.45;;;;;;;;;;5068258;28;20027;-59
2023/02/14 01:17:36;;;;;;;159.23;14.82;;;;;;;;;;5067095;28;20028;-58
2023/02/14 01:20:01;;;;;;;154.60;14.30;;;;;;;;;;5068445;28;20024;-59
2023/02/14 01:22:26;;;;;;;174.68;14.98;;;;;;;;;;5066085;28;20152;-59
2023/02/14 01:24:51;;;;;;;186.45;16.17;;;;;;;;;;5067899;28;20122;-59
2023/02/14 01:27:17;;;;;;;187.52;16.33;;;;;;;;;;5066947;28;20093;-59
2023/02/14 01:29:42;;;;;;;188.25;17.52;;;;;;;;;;5068788;28;20016;-59
2023/02/14 01:32:07;;;;;;;132.57;12.82;;;;;;;;;;5068497;28;20060;-59
2023/02/14 01:34:32;;;;;;;208.60;17.30;;;;;;;;;;5068207;28;20023;-58
2023/02/14 01:36:58;;;;;;;166.00;14.13;;;;;;;;;;5066473;28;20040;-59
2023/02/14 01:39:23;;;;;;;171.13;15.98;;;;;;;;;;5070865;28;20271;-59
2023/02/14 01:41:48;;;;;;;263.83;17.73;;;;;;;;;;5066192;28;20658;-60
2023/02/14 01:44:13;;;;;;;159.52;13.90;;;;;;;;;;5067288;28;20277;-59
2023/02/14 01:46:40;;;;;;;157.40;13.57;;;;;;;;;;5067209;28;20029;-58
2023/02/14 01:49:09;;;;;;;169.27;15.88;;;;;;;;;;5067350;28;20340;-58
2023/02/14 01:51:37;;;;;;;138.70;13.75;;;;;;;;;;5068614;28;20031;-57
2023/02/14 01:54:03;;;;;;;166.63;14.75;;;;;;;;;;5066724;28;20131;-56
2023/02/14 01:56:32;;;;;;;161.88;15.52;;;;;;;;;;5066243;28;20147;-57
2023/02/14 01:58:59;;;;;;;187.43;17.05;;;;;;;;;;5067309;28;20685;-57
2023/02/14 02:01:25;;;;;;;174.93;15.85;;;;;;;;;;5067357;28;20446;-57
2023/02/14 02:03:53;;;;;;;193.65;18.25;;;;;;;;;;5065502;28;20024;-57
2023/02/14 02:06:27;;;;;;;169.35;15.85;;;;;;;;;;5067359;28;20028;-58
2023/02/14 02:09:04;;;;;;;169.38;15.57;;;;;;;;;;5069087;28;20020;-57
2023/02/14 02:11:30;;;;;;;161.60;16.00;;;;;;;;;;5065958;28;20040;-57
2023/02/14 02:13:55;;;;;;;175.77;15.20;;;;;;;;;;5066179;28;20031;-57
2023/02/14 02:16:23;;;;;;;184.98;15.50;;;;;;;;;;5067325;28;20483;-58
2023/02/14 02:18:57;;;;;;;160.43;15.57;;;;;;;;;;5067961;28;20012;-56
2023/02/14 02:21:25;;;;;;;216.25;17.05;;;;;;;;;;5066638;28;20036;-57
2023/02/14 02:24:04;;;;;;;154.75;16.05;;;;;;;;;;5066318;28;20132;-57
2023/02/14 02:26:42;;;;;;;195.82;15.70;;;;;;;;;;5069288;28;20028;-59
2023/02/14 02:29:30;;;;;;;174.77;17.40;;;;;;;;;;5066937;28;20020;-59
2023/02/14 02:32:14;;;;;;;192.55;15.95;;;;;;;;;;5066969;28;20024;-58
2023/02/14 02:34:40;;;;;;;212.20;17.65;;;;;;;;;;5067105;28;20031;-57
2023/02/14 02:37:05;;;;;;;140.65;9.48;;;;;;;;;;5066398;28;20032;-56
2023/02/14 02:39:31;;;;;;;129.47;10.60;;;;;;;;;;5067366;28;20024;-56
2023/02/14 02:41:59;;;;;;;217.88;14.95;;;;;;;;;;5065478;28;20290;-57
2023/02/14 02:44:36;;;;;;;126.78;9.25;;;;;;;;;;5069751;28;20024;-57
2023/02/14 02:47:12;;;;;;;175.60;18.58;;;;;;;;;;5067738;28;20056;-57
2023/02/14 02:55:24;;;;;;;193.82;18.55;;;;;;;;;;5064777;28;20063;-57
2023/02/14 02:57:51;;;;;;;148.50;12.88;;;;;;;;;;5068623;28;20503;-57
2023/02/14 03:00:17;;;;;;;163.95;14.13;;;;;;;;;;5065262;28;20013;-56
2023/02/14 03:05:30;;;;;;;196.00;21.48;;;;;;;;;;5066667;28;20498;-57
2023/02/14 03:07:56;;;;;;;188.23;19.00;;;;;;;;;;5066175;28;20097;-56
2023/02/14 03:10:23;;;;;;;244.55;22.20;;;;;;;;;;5064464;28;20111;-57
2023/02/14 03:12:58;;;;;;;217.90;19.20;;;;;;;;;;5063525;28;20016;-58
2023/02/14 03:15:26;;;;;;;199.00;15.98;;;;;;;;;;5066500;28;20027;-56
2023/02/14 03:18:01;;;;;;;171.75;16.80;;;;;;;;;;5066762;28;20687;-57
2023/02/14 03:20:45;;;;;;;207.93;22.67;;;;;;;;;;5064050;28;20044;-57
2023/02/14 03:23:19;;;;;;;166.18;18.98;;;;;;;;;;5067291;28;20031;-57
2023/02/14 03:25:50;;;;;;;163.43;14.35;;;;;;;;;;5065001;28;20037;-57
2023/02/14 03:28:15;;;;;;;176.20;17.63;;;;;;;;;;5066107;28;20016;-57
2023/02/14 03:30:59;;;;;;;234.55;21.83;;;;;;;;;;5064216;28;20121;-58
2023/02/14 03:33:29;;;;;;;158.75;12.70;;;;;;;;;;5066372;28;20028;-60
2023/02/14 03:36:33;;;;;;;199.40;18.42;;;;;;;;;;5065527;28;20573;-59
2023/02/14 03:39:16;;;;;;;170.35;17.08;;;;;;;;;;4994179;28;20025;-61
2023/02/14 03:41:45;;;;;;;263.08;22.10;;;;;;;;;;5007924;28;20032;-58
2023/02/14 03:44:11;;;;;;;185.18;19.15;;;;;;;;;;5047303;28;20035;-60
2023/02/14 03:46:39;;;;;;;181.07;19.02;;;;;;;;;;5065162;28;20104;-59
2023/02/14 03:49:07;;;;;;;208.02;18.33;;;;;;;;;;5067329;28;20043;-60
2023/02/14 03:51:33;;;;;;;156.77;15.02;;;;;;;;;;5064656;28;20764;-59
2023/02/14 03:53:59;;;;;;;176.57;20.75;;;;;;;;;;5064740;28;20016;-60
2023/02/14 03:56:28;;;;;;;214.50;24.45;;;;;;;;;;5064766;28;20549;-59
2023/02/14 03:58:56;;;;;;;173.75;14.45;;;;;;;;;;5066752;28;20221;-59
2023/02/14 04:01:21;;;;;;;178.38;17.17;;;;;;;;;;5063968;28;20028;-60
2023/02/14 04:03:47;;;;;;;162.73;17.17;;;;;;;;;;5066659;28;20031;-59
2023/02/14 04:06:12;;;;;;;181.55;17.83;;;;;;;;;;5067241;28;20251;-60
2023/02/14 04:08:38;;;;;;;197.00;20.45;;;;;;;;;;5066154;28;20024;-60
2023/02/14 04:11:03;;;;;;;171.68;19.83;;;;;;;;;;5063508;28;20045;-59
2023/02/14 04:13:29;;;;;;;210.13;18.38;;;;;;;;;;5063027;28;20165;-57
2023/02/14 04:15:54;;;;;;;148.63;12.25;;;;;;;;;;5067098;28;20036;-57
2023/02/14 04:21:04;;;;;;;194.48;21.10;;;;;;;;;;5063599;28;20048;-58
2023/02/14 04:23:29;;;;;;;196.43;21.60;;;;;;;;;;5064472;28;20557;-58
2023/02/14 04:25:54;;;;;;;236.00;22.17;;;;;;;;;;5062662;28;20039;-57
2023/02/14 04:28:19;;;;;;;202.98;22.05;;;;;;;;;;5067200;28;20073;-57
2023/02/14 04:30:45;;;;;;;262.77;23.30;;;;;;;;;;5065224;28;20043;-57
2023/02/14 04:33:10;;;;;;;406.92;28.95;;;;;;;;;;5062303;28;20266;-57
2023/02/14 04:35:35;;;;;;;188.02;21.50;;;;;;;;;;5063472;28;20035;-56
2023/02/14 04:38:01;;;;;;;219.63;20.52;;;;;;;;;;5061342;28;20024;-58
2023/02/14 04:40:27;;;;;;;199.68;17.42;;;;;;;;;;5063897;28;20059;-56
2023/02/14 04:42:52;;;;;;;182.43;18.65;;;;;;;;;;5067157;28;20412;-59
2023/02/14 04:45:17;;;;;;;210.75;21.48;;;;;;;;;;5065881;28;20097;-57
2023/02/14 04:47:42;;;;;;;167.52;19.10;;;;;;;;;;5068444;28;20019;-59
2023/02/14 04:50:08;;;;;;;241.95;23.17;;;;;;;;;;5064308;28;20044;-58
2023/02/14 04:52:33;;;;;;;191.63;20.60;;;;;;;;;;5063856;28;20205;-58
2023/02/14 04:54:58;;;;;;;162.70;15.60;;;;;;;;;;5065081;28;20631;-58
2023/02/14 04:57:24;;;;;;;244.00;22.88;;;;;;;;;;5066158;28;20566;-57
2023/02/14 04:59:49;;;;;;;186.07;21.70;;;;;;;;;;5064889;28;20029;-58
2023/02/14 05:02:14;;;;;;;166.43;14.32;;;;;;;;;;5064172;28;20107;-58
2023/02/14 05:04:39;;;;;;;212.80;21.48;;;;;;;;;;5064132;28;20020;-59
2023/02/14 05:07:05;;;;;;;199.02;18.77;;;;;;;;;;5063565;28;20036;-58
2023/02/14 05:09:30;;;;;;;228.10;20.42;;;;;;;;;;5064578;28;20039;-57
2023/02/14 05:11:55;;;;;;;188.60;14.27;;;;;;;;;;5063314;28;20041;-57
2023/02/14 05:14:20;;;;;;;144.23;14.35;;;;;;;;;;5066519;28;20020;-56
2023/02/14 05:16:46;;;;;;;223.20;19.90;;;;;;;;;;5065717;28;20089;-58
2023/02/14 05:19:11;;;;;;;187.65;19.92;;;;;;;;;;5065593;28;20530;-57
2023/02/14 05:21:37;;;;;;;206.35;20.73;;;;;;;;;;5063512;28;20032;-58
2023/02/14 05:24:02;;;;;;;209.18;22.90;;;;;;;;;;5064282;28;20025;-57
2023/02/14 05:26:27;;;;;;;203.35;21.42;;;;;;;;;;5062729;28;20028;-58
2023/02/14 05:28:53;;;;;;;238.65;22.83;;;;;;;;;;5065233;28;20154;-57
2023/02/14 05:31:18;;;;;;;174.13;20.02;;;;;;;;;;5065299;28;20034;-58
2023/02/14 05:33:43;;;;;;;178.55;21.00;;;;;;;;;;5064008;28;20028;-59
2023/02/14 05:36:08;;;;;;;238.77;23.52;;;;;;;;;;5062985;28;20040;-58
2023/02/14 05:38:34;;;;;;;212.20;23.10;;;;;;;;;;5067080;28;20028;-57
2023/02/14 05:40:59;;;;;;;199.40;18.23;;;;;;;;;;5067750;28;20143;-58
2023/02/14 05:43:25;;;;;;;214.80;24.52;;;;;;;;;;5068363;28;20873;-60
2023/02/14 05:45:50;;;;;;;163.75;15.10;;;;;;;;;;5066129;28;20140;-58
2023/02/14 05:48:15;;;;;;;208.75;21.45;;;;;;;;;;5064850;28;20040;-58
2023/02/14 05:50:41;;;;;;;202.98;17.17;;;;;;;;;;5065551;28;20052;-58
2023/02/14 05:53:07;;;;;;;182.88;15.30;;;;;;;;;;5066808;28;20023;-56
2023/02/14 05:55:32;;;;;;;223.98;18.30;;;;;;;;;;5066586;28;20125;-60
2023/02/14 05:57:57;;;;;;;186.70;18.63;;;;;;;;;;5068113;28;20028;-56
2023/02/14 06:00:23;;;;;;;261.23;24.17;;;;;;;;;;5065814;28;20092;-58
2023/02/14 06:02:48;;;;;;;209.85;18.60;;;;;;;;;;5065625;28;20031;-57
2023/02/14 06:05:16;;;;;;;202.02;20.90;;;;;;;;;;5067260;28;20103;-57
2023/02/14 06:07:42;;;;;;;250.52;24.50;;;;;;;;;;5068062;28;20068;-56
2023/02/14 06:10:08;;;;;;;180.43;16.33;;;;;;;;;;5067597;28;20107;-58
2023/02/14 06:12:34;;;;;;;195.15;17.80;;;;;;;;;;5067994;28;20055;-58
2023/02/14 06:14:59;;;;;;;202.23;17.38;;;;;;;;;;5068302;28;20075;-59
2023/02/14 06:17:24;;;;;;;183.10;16.95;;;;;;;;;;5065946;28;20036;-60
2023/02/14 06:19:49;;;;;;;199.35;17.38;;;;;;;;;;5066956;28;20024;-57
2023/02/14 06:22:15;;;;;;;185.27;15.38;;;;;;;;;;5065135;28;20131;-58
2023/02/14 06:24:40;;;;;;;205.65;21.52;;;;;;;;;;5066424;28;20011;-59
2023/02/14 06:27:05;;;;;;;219.85;14.52;;;;;;;;;;5065705;28;20667;-58
2023/02/14 06:29:30;;;;;;;181.27;18.15;;;;;;;;;;5067299;28;20092;-58
2023/02/14 06:31:55;;;;;;;198.97;14.70;;;;;;;;;;5065611;28;20041;-58
2023/02/14 06:34:21;;;;;;;177.98;17.08;;;;;;;;;;5067168;28;20360;-58
2023/02/14 06:36:46;;;;;;;180.05;16.20;;;;;;;;;;5066443;28;20127;-58
2023/02/14 06:39:11;;;;;;;242.10;18.48;;;;;;;;;;5064304;28;20185;-59
2023/02/14 06:41:36;;;;;;;150.50;11.33;;;;;;;;;;5064236;28;20885;-58
2023/02/14 06:44:01;;;;;;;197.35;15.77;;;;;;;;;;5067395;28;20277;-57
2023/02/14 06:46:27;;;;;;;220.25;16.50;;;;;;;;;;5065478;28;20033;-57
2023/02/14 06:48:52;;;;;;;172.27;15.73;;;;;;;;;;5065427;28;20441;-57
2023/02/14 06:51:17;;;;;;;192.82;15.25;;;;;;;;;;5063505;28;20852;-58
2023/02/14 06:53:42;;;;;;;149.35;12.55;;;;;;;;;;5064386;28;20028;-57
2023/02/14 06:56:08;;;;;;;183.50;17.90;;;;;;;;;;5066283;28;20570;-58
2023/02/14 06:58:33;;;;;;;193.10;14.15;;;;;;;;;;5065995;28;20024;-57
2023/02/14 07:00:58;;;;;;;176.85;15.55;;;;;;;;;;5065809;28;20100;-59
2023/02/14 07:03:24;;;;;;;165.45;12.57;;;;;;;;;;5063798;28;20511;-58
2023/02/14 07:05:49;;;;;;;198.40;17.30;;;;;;;;;;5063399;28;20996;-58
2023/02/14 07:08:14;;;;;;;130.60;14.73;;;;;;;;;;5066047;28;20887;-58
2023/02/14 07:10:40;;;;;;;212.23;15.77;;;;;;;;;;5066235;28;20396;-57
2023/02/14 07:13:05;;;;;;;187.63;14.65;;;;;;;;;;5068758;28;20736;-58
2023/02/14 07:15:30;;;;;;;155.60;13.20;;;;;;;;;;5064951;28;20812;-59
2023/02/14 07:17:55;;;;;;;201.25;15.70;;;;;;;;;;5064548;28;20032;-57
2023/02/14 07:20:21;;;;;;;196.23;12.05;;;;;;;;;;5064153;28;20020;-58
2023/02/14 07:22:46;;;;;;;135.82;7.32;;;;;;;;;;5064213;28;20024;-58
2023/02/14 07:25:11;;;;;;;173.80;13.75;;;;;;;;;;5065783;28;20013;-58
2023/02/14 07:27:37;;;;;;;162.73;14.38;;;;;;;;;;5067169;28;20020;-56
2023/02/14 07:30:03;;;;;;;199.30;14.88;;;;;;;;;;5067060;28;20015;-58
2023/02/14 07:32:28;;;;;;;158.70;13.90;;;;;;;;;;5064888;28;20032;-57
2023/02/14 07:34:54;;;;;;;159.07;13.43;;;;;;;;;;5065472;28;20027;-59
2023/02/14 07:37:19;;;;;;;210.17;17.03;;;;;;;;;;5067692;28;20036;-60
2023/02/14 07:39:44;;;;;;;157.50;12.57;;;;;;;;;;5066694;28;20255;-58
2023/02/14 07:42:10;;;;;;;152.38;15.10;;;;;;;;;;5062963;28;20446;-58
2023/02/14 07:44:38;;;;;;;171.65;15.95;;;;;;;;;;5065579;28;20114;-58
2023/02/14 07:47:08;;;;;;;162.85;14.90;;;;;;;;;;5064390;28;20067;-58
2023/02/14 07:49:33;;;;;;;214.90;13.98;;;;;;;;;;5065880;28;20020;-58
2023/02/14 07:51:59;;;;;;;162.60;11.60;;;;;;;;;;5064754;28;20242;-58
2023/02/14 07:54:24;;;;;;;153.63;13.90;;;;;;;;;;5064888;28;20029;-58
2023/02/14 07:56:49;;;;;;;120.07;6.87;;;;;;;;;;5065610;28;20063;-56
2023/02/14 07:59:15;;;;;;;164.23;14.48;;;;;;;;;;5066676;28;20269;-57
2023/02/14 08:01:40;;;;;;;234.00;10.27;;;;;;;;;;5063459;28;20036;-55
2023/02/14 08:04:05;;;;;;;127.18;5.65;;;;;;;;;;5066375;28;20020;-57
2023/02/14 08:06:30;;;;;;;128.93;10.15;;;;;;;;;;5065816;28;20029;-56
2023/02/14 08:08:56;;;;;;;191.30;12.13;;;;;;;;;;5065744;28;20308;-57
2023/02/14 08:14:06;;;;;;;172.15;12.68;;;;;;;;;;5065325;28;20035;-58
2023/02/14 08:16:33;;;;;;;154.82;11.02;;;;;;;;;;5066089;28;20028;-57
2023/02/14 08:18:58;;;;;;;213.30;15.18;;;;;;;;;;5064793;28;20020;-57
2023/02/14 08:21:23;;;;;;;147.45;12.88;;;;;;;;;;5065960;28;20031;-56
2023/02/14 08:23:48;;;;;;;147.20;13.30;;;;;;;;;;5065024;28;20028;-57
2023/02/14 08:26:14;;;;;;;207.38;14.60;;;;;;;;;;5065628;28;20028;-56
2023/02/14 08:28:39;;;;;;;168.23;14.52;;;;;;;;;;5065094;28;20024;-56
2023/02/14 08:31:05;;;;;;;208.43;14.80;;;;;;;;;;5065834;28;20530;-57
2023/02/14 08:33:30;;;;;;;198.82;14.85;;;;;;;;;;5065452;28;20101;-56
2023/02/14 08:35:55;;;;;;;145.65;14.75;;;;;;;;;;5065832;28;20138;-56
2023/02/14 08:38:20;;;;;;;195.73;15.13;;;;;;;;;;5066496;28;20148;-56
2023/02/14 08:40:46;;;;;;;188.35;14.02;;;;;;;;;;5065771;28;20315;-56
2023/02/14 08:43:11;;;;;;;178.77;14.07;;;;;;;;;;5065377;28;20483;-57
2023/02/14 08:45:37;;;;;;;174.15;12.23;;;;;;;;;;5063568;28;20090;-57
2023/02/14 08:48:06;;;;;;;196.98;14.80;;;;;;;;;;5067437;28;20115;-58
2023/02/14 08:50:32;;;;;;;212.93;13.63;;;;;;;;;;5062540;28;20028;-56
2023/02/14 08:52:57;;;;;;;181.00;14.48;;;;;;;;;;5063541;28;20029;-57
2023/02/14 08:55:23;;;;;;;179.40;15.25;;;;;;;;;;5064043;28;20025;-57
2023/02/14 08:57:48;;;;;;;217.85;14.57;;;;;;;;;;5065252;28;20020;-58
2023/02/14 09:00:13;;;;;;;166.38;14.43;;;;;;;;;;5063121;28;20762;-59
2023/02/14 09:02:39;;;;;;;161.35;12.50;;;;;;;;;;5048925;28;20052;-59
2023/02/14 09:05:05;;;;;;;208.05;11.65;;;;;;;;;;5065953;28;20070;-57
2023/02/14 09:07:30;;;;;;;154.85;7.75;;;;;;;;;;5065408;28;20025;-58
2023/02/14 09:09:55;;;;;;;204.10;11.95;;;;;;;;;;5063225;28;20807;-57
2023/02/14 09:12:20;;;;;;;136.80;14.43;;;;;;;;;;5065511;28;20510;-58
2023/02/14 09:14:45;;;;;;;129.48;8.93;;;;;;;;;;5068790;28;20658;-58
2023/02/14 09:17:12;;;;;;;207.13;13.17;;;;;;;;;;5067782;28;20067;-58
2023/02/14 09:19:37;;;;;;;180.15;14.35;;;;;;;;;;5068217;28;20254;-58
2023/02/14 09:22:03;;;;;;;182.10;14.05;;;;;;;;;;5065689;28;20090;-57
2023/02/14 09:24:30;;;;;;;149.00;11.43;;;;;;;;;;5070705;28;20073;-56
2023/02/14 09:26:56;;;;;;;162.00;12.95;;;;;;;;;;5068323;28;20040;-57
2023/02/14 09:29:22;;;;;;;200.57;15.77;;;;;;;;;;5069202;28;20016;-58
2023/02/14 09:31:47;;;;;;;211.50;13.50;;;;;;;;;;5067091;28;20029;-58
2023/02/14 09:34:13;;;;;;;129.93;11.73;;;;;;;;;;5068161;28;20036;-57
2023/02/14 09:39:22;;;;;;;156.13;13.18;;;;;;;;;;5068652;28;20043;-58
2023/02/14 09:42:02;;;;;;;217.50;16.02;;;;;;;;;;5066127;28;20036;-58
2023/02/14 09:44:50;;;;;;;164.30;11.07;;;;;;;;;;5068573;28;20020;-57
2023/02/14 09:47:15;;;;;;;166.05;14.23;;;;;;;;;;5065715;28;20036;-57
2023/02/14 09:49:41;;;;;;;165.93;16.13;;;;;;;;;;5068847;28;20016;-57
2023/02/14 09:52:09;;;;;;;177.68;16.80;;;;;;;;;;5066977;28;20255;-58
2023/02/14 09:54:34;;;;;;;153.13;11.00;;;;;;;;;;5067285;28;20040;-58
2023/02/14 09:57:09;;;;;;;201.40;14.25;;;;;;;;;;5068276;28;20036;-58
2023/02/14 09:59:34;;;;;;;138.48;9.57;;;;;;;;;;5067365;28;20033;-58
2023/02/14 10:02:18;;;;;;;177.87;7.83;;;;;;;;;;5065055;28;20032;-57
2023/02/14 10:04:43;;;;;;;130.10;10.93;;;;;;;;;;5068449;28;21098;-58
2023/02/14 10:07:21;;;;;;;186.17;14.07;;;;;;;;;;5066171;28;20048;-58
2023/02/14 10:10:03;;;;;;;163.43;14.88;;;;;;;;;;5068154;28;20247;-59
2023/02/14 10:12:31;;;;;;;137.38;12.75;;;;;;;;;;5065780;28;20040;-58
2023/02/14 10:14:59;;;;;;;166.95;16.02;;;;;;;;;;5067366;28;20035;-58
2023/02/14 10:17:27;;;;;;;181.27;16.05;;;;;;;;;;5067806;28;20101;-57
2023/02/14 10:19:55;;;;;;;174.05;15.63;;;;;;;;;;5067928;28;20020;-57
2023/02/14 10:22:23;;;;;;;193.07;16.08;;;;;;;;;;5064619;28;20467;-57
2023/02/14 10:25:00;;;;;;;177.00;16.65;;;;;;;;;;5067206;28;20568;-56
2023/02/14 10:27:31;;;;;;;182.43;9.77;;;;;;;;;;5066858;28;20043;-57
2023/02/14 10:29:56;;;;;;;152.93;10.50;;;;;;;;;;5066573;28;20107;-57
2023/02/14 10:32:34;;;;;;;144.80;12.90;;;;;;;;;;5067463;28;20582;-58
2023/02/14 10:35:02;;;;;;;137.20;10.13;;;;;;;;;;5063059;28;20588;-58
2023/02/14 10:37:27;;;;;;;168.20;14.65;;;;;;;;;;5066315;28;20605;-59
2023/02/14 10:40:11;;;;;;;157.55;8.73;;;;;;;;;;5066662;28;20055;-55
2023/02/14 10:42:42;;;;;;;166.63;16.50;;;;;;;;;;5086920;28;20104;-58
2023/02/14 10:45:25;;;;;;;156.55;14.73;;;;;;;;;;5088230;28;20016;-58
2023/02/14 10:47:57;;;;;;;227.85;17.40;;;;;;;;;;5087930;28;20035;-59
2023/02/14 10:50:22;;;;;;;142.35;12.93;;;;;;;;;;5087517;28;20023;-58
2023/02/14 10:52:57;;;;;;;156.87;14.27;;;;;;;;;;5084946;28;20024;-58
2023/02/14 10:55:28;;;;;;;171.93;16.52;;;;;;;;;;5087316;28;20274;-59
2023/02/14 10:57:55;;;;;;;171.85;12.20;;;;;;;;;;5087032;28;20077;-58
2023/02/14 11:00:32;;;;;;;147.27;14.18;;;;;;;;;;5087411;28;20047;-59
2023/02/14 11:02:58;;;;;;;152.30;11.13;;;;;;;;;;5086492;28;20015;-60
2023/02/14 11:05:38;;;;;;;140.70;15.27;;;;;;;;;;5087022;28;20030;-60
2023/02/14 11:08:12;;;;;;;173.43;13.35;;;;;;;;;;5086310;28;20024;-59
2023/02/14 11:10:38;;;;;;;188.10;10.32;;;;;;;;;;5085870;28;20036;-57
2023/02/14 11:13:23;;;;;;;173.98;14.68;;;;;;;;;;5085672;28;20035;-59
2023/02/14 11:15:50;;;;;;;143.43;12.73;;;;;;;;;;5085383;28;20036;-59
2023/02/14 11:18:20;;;;;;;149.27;10.40;;;;;;;;;;5086381;28;20102;-58
2023/02/14 11:20:58;;;;;;;165.73;13.27;;;;;;;;;;5084682;28;20032;-60
2023/02/14 11:23:23;;;;;;;146.88;10.75;;;;;;;;;;5085248;28;20026;-57
2023/02/14 11:25:54;;;;;;;184.07;14.10;;;;;;;;;;5084432;28;20701;-59
2023/02/14 11:28:20;;;;;;;161.07;12.15;;;;;;;;;;5085994;28;20184;-58
2023/02/14 11:30:46;;;;;;;199.88;9.93;;;;;;;;;;5084282;28;20033;-58
2023/02/14 11:33:12;;;;;;;173.10;14.35;;;;;;;;;;5085701;28;20077;-57
2023/02/14 11:35:38;;;;;;;199.70;14.93;;;;;;;;;;5084712;28;21081;-57
2023/02/14 11:38:05;;;;;;;175.80;13.95;;;;;;;;;;5086744;28;20122;-58
2023/02/14 11:40:37;;;;;;;180.95;12.40;;;;;;;;;;5084172;28;20498;-58
2023/02/14 11:43:02;;;;;;;;;;;;;;;;;;5084729;28;20108;-58
2023/02/14 11:45:29;;;;;;;154.38;13.88;;;;;;;;;;5070789;28;20002;-58
2023/02/14 11:48:12;;;;;;;204.93;14.57;;;;;;;;;;5085715;28;20038;-60
2023/02/14 11:50:38;;;;;;;218.10;13.88;;;;;;;;;;5086447;28;20568;-58
2023/02/14 11:53:03;;;;;;;210.10;14.82;;;;;;;;;;5084599;28;20028;-58
2023/02/14 11:55:31;;;;;;;152.00;10.75;;;;;;;;;;5084639;28;20507;-57
2023/02/14 11:57:57;;;;;;;150.13;11.60;;;;;;;;;;5085269;28;20043;-57
2023/02/14 12:00:25;;;;;;;133.95;13.40;;;;;;;;;;5084953;28;20031;-58
2023/02/14 12:02:51;;;;;;;174.40;14.48;;;;;;;;;;5085357;28;20016;-58
2023/02/14 12:05:27;;;;;;;216.50;15.00;;;;;;;;;;5085852;28;20016;-58
2023/02/14 12:07:57;;;;;;;166.90;11.75;;;;;;;;;;5084958;28;20024;-59
2023/02/14 12:10:29;;;;;;;206.13;15.70;;;;;;;;;;5084799;28;20020;-58
2023/02/14 12:13:07;;;;;;;157.60;15.18;;;;;;;;;;5086985;28;20117;-58
2023/02/14 12:15:39;;;;;;;150.00;10.55;;;;;;;;;;5086487;28;20027;-58
2023/02/14 12:18:24;;;;;;;158.90;12.80;;;;;;;;;;5084550;28;20166;-57
2023/02/14 12:20:59;;;;;;;162.80;9.18;;;;;;;;;;5083206;28;20127;-57
2023/02/14 12:23:26;;;;;;;155.35;13.18;;;;;;;;;;5086648;28;20058;-58
2023/02/14 12:26:00;;;;;;;138.57;8.60;;;;;;;;;;5086216;28;20257;-57
2023/02/14 12:28:30;;;;;;;144.00;10.38;;;;;;;;;;5085464;28;20042;-57
2023/02/14 12:30:55;;;;;;;153.65;13.13;;;;;;;;;;5084626;28;20024;-58
2023/02/14 12:33:21;;;;;;;169.00;14.53;;;;;;;;;;5086382;28;20024;-58
2023/02/14 12:36:00;;;;;;;214.43;15.68;;;;;;;;;;5083674;28;20250;-59
2023/02/14 12:38:28;;;;;;;131.27;12.05;;;;;;;;;;5085228;28;20767;-57
2023/02/14 12:40:53;;;;;;;203.27;14.45;;;;;;;;;;5085141;28;20513;-57
2023/02/14 12:43:24;;;;;;;156.93;13.03;;;;;;;;;;5085857;28;20615;-57
2023/02/14 12:46:08;;;;;;;176.63;12.68;;;;;;;;;;5084983;28;20028;-57
2023/02/14 12:48:43;;;;;;;167.65;13.95;;;;;;;;;;5088680;28;20020;-58
2023/02/14 12:51:11;;;;;;;200.85;10.40;;;;;;;;;;5089101;28;20529;-58
2023/02/14 12:53:51;;;;;;;172.40;12.75;;;;;;;;;;5088901;28;20028;-58
2023/02/14 12:56:16;;;;;;;161.10;13.45;;;;;;;;;;5088861;28;20470;-56
2023/02/14 12:58:41;;;;;;;132.40;12.32;;;;;;;;;;5088639;28;20037;-57
2023/02/14 13:01:07;;;;;;;183.97;15.00;;;;;;;;;;5088268;28;20582;-57
2023/02/14 13:03:41;;;;;;;143.87;10.90;;;;;;;;;;5087929;28;20281;-58
2023/02/14 13:06:16;;;;;;;159.00;12.98;;;;;;;;;;5089589;28;20263;-58
2023/02/14 13:09:00;;;;;;;169.15;12.30;;;;;;;;;;5090159;28;20031;-59
2023/02/14 13:11:40;;;;;;;193.93;13.90;;;;;;;;;;5089042;28;20028;-57
2023/02/14 13:14:24;;;;;;;143.35;10.32;;;;;;;;;;5090691;28;20634;-58
2023/02/14 13:16:55;;;;;;;149.00;9.93;;;;;;;;;;5089600;28;20088;-59
2023/02/14 13:19:39;;;;;;;146.10;11.75;;;;;;;;;;5090196;28;20047;-57
2023/02/14 13:22:07;;;;;;;145.77;8.02;;;;;;;;;;5086409;28;20512;-58
2023/02/14 13:24:40;;;;;;;150.35;10.80;;;;;;;;;;5088125;28;20023;-58
2023/02/14 13:27:07;;;;;;;139.98;10.75;;;;;;;;;;5087507;28;20028;-59
2023/02/14 13:29:40;;;;;;;137.27;10.32;;;;;;;;;;5089443;28;20762;-57
2023/02/14 13:32:09;;;;;;;138.10;9.85;;;;;;;;;;5088395;28;20036;-57
2023/02/14 13:34:37;;;;;;;158.95;11.40;;;;;;;;;;5088753;28;20024;-60
2023/02/14 13:37:04;;;;;;;166.57;10.88;;;;;;;;;;5088482;28;20028;-57
2023/02/14 13:39:34;;;;;;;150.32;12.68;;;;;;;;;;5087657;28;20023;-58
2023/02/14 13:42:00;;;;;;;190.95;11.38;;;;;;;;;;5085720;28;20953;-57
2023/02/14 13:44:37;;;;;;;127.00;7.72;;;;;;;;;;5085763;28;20874;-56
2023/02/14 13:47:03;;;;;;;136.07;7.30;;;;;;;;;;5087519;28;20890;-58
2023/02/14 13:49:30;;;;;;;119.55;9.70;;;;;;;;;;5085711;28;20708;-58
2023/02/14 13:51:57;;;;;;;154.90;11.13;;;;;;;;;;5086017;28;20031;-57
2023/02/14 13:54:30;;;;;;;146.95;9.98;;;;;;;;;;5089493;28;20072;-57
2023/02/14 13:56:57;;;;;;;133.73;8.88;;;;;;;;;;5085712;28;20478;-57
2023/02/14 13:59:32;;;;;;;158.15;11.50;;;;;;;;;;5087174;28;20154;-57
2023/02/14 14:02:16;;;;;;;155.93;11.25;;;;;;;;;;5086755;28;20059;-58
2023/02/14 14:04:41;;;;;;;153.38;10.07;;;;;;;;;;5085915;28;20070;-58
2023/02/14 14:07:17;;;;;;;182.15;10.05;;;;;;;;;;5088712;28;20055;-57
2023/02/14 14:09:42;;;;;;;169.73;11.98;;;;;;;;;;5085904;28;20556;-57
2023/02/14 14:12:26;;;;;;;180.35;11.27;;;;;;;;;;5086269;28;20036;-56
2023/02/14 14:15:03;;;;;;;145.18;11.00;;;;;;;;;;5088196;28;20055;-56
2023/02/14 14:17:28;;;;;;;141.38;10.85;;;;;;;;;;5086779;28;20135;-57
2023/02/14 14:19:54;;;;;;;158.85;10.82;;;;;;;;;;5088152;28;20023;-57
2023/02/14 14:22:19;;;;;;;166.27;9.00;;;;;;;;;;5087155;28;20032;-58
2023/02/14 14:24:59;;;;;;;177.20;10.55;;;;;;;;;;5087919;28;20026;-57
2023/02/14 14:27:27;;;;;;;130.57;10.02;;;;;;;;;;5086465;28;20038;-58
2023/02/14 14:29:54;;;;;;;185.60;10.15;;;;;;;;;;5087226;28;20333;-58
2023/02/14 14:32:25;;;;;;;150.88;11.95;;;;;;;;;;5086344;28;20031;-58